Time;durP1;ratioP1;P1;durP2;ratioP2;P2;SDS_P1;SDS_P2;PMS_P1;PMS_P2;Temp;Humidity;BMP_temperature;BMP_pressure;BME280_temperature;BME280_humidity;BME280_pressure;Samples;Min_cycle;Max_cycle;Signal;HPM_P1;HPM_P2
2022/08/07 00:01:46;;;;;;;11.18;3.63;;;14.00;99.90;;;;;;4990187;28;20424;-74
2022/08/07 00:04:12;;;;;;;13.45;3.88;;;13.90;99.90;;;;;;4993991;28;20034;-75
2022/08/07 00:06:39;;;;;;;6.10;3.55;;;13.90;99.90;;;;;;4994000;28;20027;-75
2022/08/07 00:09:04;;;;;;;8.68;3.90;;;13.90;99.90;;;;;;4992937;28;20027;-75
2022/08/07 00:11:30;;;;;;;5.10;3.13;;;13.90;99.90;;;;;;4993188;28;20065;-75
2022/08/07 00:13:56;;;;;;;7.30;3.92;;;13.80;99.90;;;;;;4992624;28;20113;-74
2022/08/07 00:16:23;;;;;;;5.55;2.72;;;13.80;99.90;;;;;;4990870;28;20027;-75
2022/08/07 00:18:48;;;;;;;7.55;3.85;;;13.70;99.90;;;;;;4991822;28;20054;-74
2022/08/07 00:21:14;;;;;;;6.05;2.70;;;13.70;99.90;;;;;;4993518;28;20026;-74
2022/08/07 00:23:40;;;;;;;8.25;3.35;;;13.60;99.90;;;;;;4992277;28;20038;-75
2022/08/07 00:26:09;;;;;;;4.40;2.60;;;13.70;99.90;;;;;;4993212;28;20018;-74
2022/08/07 00:28:35;;;;;;;6.15;3.50;;;13.60;99.90;;;;;;4991404;28;20089;-75
2022/08/07 00:31:03;;;;;;;7.15;3.40;;;13.60;99.90;;;;;;4992962;28;20031;-75
2022/08/07 00:33:29;;;;;;;6.05;3.20;;;13.60;99.90;;;;;;4992956;28;20030;-75
2022/08/07 00:35:55;;;;;;;12.93;3.80;;;13.60;99.90;;;;;;4992716;28;20039;-74
2022/08/07 00:38:21;;;;;;;4.60;2.92;;;13.60;99.90;;;;;;4991879;28;20027;-74
2022/08/07 00:40:47;;;;;;;7.38;3.30;;;13.50;99.90;;;;;;4992532;28;20026;-73
2022/08/07 00:43:13;;;;;;;5.70;3.20;;;13.50;99.90;;;;;;4992035;28;20078;-76
2022/08/07 00:45:39;;;;;;;9.65;3.47;;;13.40;99.90;;;;;;4992524;28;20126;-75
2022/08/07 00:48:07;;;;;;;7.03;3.83;;;13.40;99.90;;;;;;4991362;28;20119;-74
2022/08/07 00:50:33;;;;;;;6.15;2.67;;;13.40;99.90;;;;;;4990653;28;20069;-75
2022/08/07 00:52:59;;;;;;;6.45;3.50;;;13.40;99.90;;;;;;4992527;28;20046;-75
2022/08/07 00:55:25;;;;;;;6.72;2.95;;;13.30;99.90;;;;;;4992954;28;20163;-75
2022/08/07 00:57:51;;;;;;;12.00;4.22;;;13.30;99.90;;;;;;4990260;28;20034;-73
2022/08/07 01:00:18;;;;;;;5.13;3.15;;;13.30;99.90;;;;;;4992837;28;20077;-74
2022/08/07 01:02:44;;;;;;;7.00;3.53;;;13.30;99.90;;;;;;4992898;28;20030;-74
2022/08/07 01:05:11;;;;;;;8.02;3.33;;;13.30;99.90;;;;;;4991802;28;20037;-75
2022/08/07 01:07:39;;;;;;;10.85;3.42;;;13.30;99.90;;;;;;4992565;28;20045;-76
2022/08/07 01:10:10;;;;;;;6.70;3.58;;;13.30;99.90;;;;;;4991077;28;20046;-74
2022/08/07 01:12:37;;;;;;;6.53;3.45;;;13.30;99.90;;;;;;4991461;28;20045;-74
2022/08/07 01:15:04;;;;;;;8.43;3.90;;;13.30;99.90;;;;;;4991188;28;20035;-74
2022/08/07 01:17:30;;;;;;;6.28;3.45;;;13.20;99.90;;;;;;4991766;28;20062;-75
2022/08/07 01:20:03;;;;;;;9.18;3.97;;;13.20;99.90;;;;;;4991809;28;20026;-75
2022/08/07 01:22:30;;;;;;;7.22;3.20;;;13.10;99.90;;;;;;4992287;28;20027;-73
2022/08/07 01:24:57;;;;;;;8.00;3.75;;;13.10;99.90;;;;;;4991354;28;20702;-74
2022/08/07 01:27:22;;;;;;;7.03;3.22;;;13.10;99.90;;;;;;4992010;28;20377;-75
2022/08/07 01:29:49;;;;;;;8.63;4.13;;;13.10;99.90;;;;;;4992340;28;20049;-74
2022/08/07 01:32:15;;;;;;;5.18;3.15;;;13.10;99.90;;;;;;4990786;28;20042;-74
2022/08/07 01:34:43;;;;;;;4.72;3.00;;;13.10;99.90;;;;;;4992073;28;20037;-74
2022/08/07 01:37:11;;;;;;;4.03;2.35;;;13.10;99.90;;;;;;4991731;28;20027;-75
2022/08/07 01:39:37;;;;;;;3.13;2.22;;;13.00;99.90;;;;;;4991271;28;20026;-75
2022/08/07 01:42:02;;;;;;;13.07;3.00;;;13.00;99.90;;;;;;4991839;28;20046;-74
2022/08/07 01:44:28;;;;;;;4.88;2.40;;;13.00;99.90;;;;;;4992235;28;20031;-74
2022/08/07 01:46:55;;;;;;;7.10;2.45;;;12.90;99.90;;;;;;4991390;28;20057;-73
2022/08/07 01:49:20;;;;;;;6.50;3.00;;;12.90;99.90;;;;;;4990834;28;20030;-74
2022/08/07 01:51:47;;;;;;;5.35;2.55;;;12.80;99.90;;;;;;4991929;28;20034;-74
2022/08/07 01:54:18;;;;;;;4.15;2.70;;;12.70;99.90;;;;;;4990592;28;20457;-74
2022/08/07 01:56:53;;;;;;;14.35;3.17;;;12.60;99.90;;;;;;4991543;28;20062;-74
2022/08/07 01:59:27;;;;;;;4.88;2.65;;;12.50;99.90;;;;;;4990283;28;20026;-74
2022/08/07 02:01:59;;;;;;;5.28;2.92;;;12.50;99.90;;;;;;4990351;28;20117;-74
2022/08/07 02:04:56;;;;;;;5.30;2.65;;;12.50;99.90;;;;;;4989914;28;20149;-74
2022/08/07 02:07:25;;;;;;;4.07;2.45;;;12.50;99.90;;;;;;4991554;28;20045;-74
2022/08/07 02:09:54;;;;;;;6.78;3.25;;;12.50;99.90;;;;;;4991260;28;20033;-74
2022/08/07 02:12:21;;;;;;;4.15;2.75;;;12.40;99.90;;;;;;4991271;28;20442;-74
2022/08/07 02:14:51;;;;;;;4.60;2.80;;;12.40;99.90;;;;;;4990801;28;20026;-75
2022/08/07 02:17:17;;;;;;;6.65;2.85;;;12.40;99.90;;;;;;4991087;28;20023;-74
2022/08/07 02:19:47;;;;;;;6.40;3.13;;;12.40;99.90;;;;;;4990462;28;20031;-74
2022/08/07 02:22:14;;;;;;;4.88;2.38;;;12.40;99.90;;;;;;4989714;28;20026;-74
2022/08/07 02:24:44;;;;;;;4.57;2.70;;;12.40;99.90;;;;;;4991057;28;21271;-74
2022/08/07 02:27:11;;;;;;;4.20;2.75;;;12.40;99.90;;;;;;4990794;28;20030;-74
2022/08/07 02:29:39;;;;;;;4.30;2.72;;;12.40;99.90;;;;;;4991040;28;20026;-74
2022/08/07 02:32:07;;;;;;;6.38;3.03;;;12.30;99.90;;;;;;4989792;28;20031;-74
2022/08/07 02:34:34;;;;;;;5.93;3.13;;;12.30;99.90;;;;;;4991167;28;20034;-73
2022/08/07 02:37:04;;;;;;;5.75;2.63;;;12.20;99.90;;;;;;4993640;28;20035;-74
2022/08/07 02:39:32;;;;;;;9.30;3.55;;;12.20;99.90;;;;;;4994534;28;20710;-74
2022/08/07 02:42:00;;;;;;;5.38;3.13;;;12.20;99.90;;;;;;4994670;28;20150;-73
2022/08/07 02:44:28;;;;;;;4.68;2.10;;;12.10;99.90;;;;;;4993543;28;20038;-74
2022/08/07 02:46:55;;;;;;;7.55;3.65;;;12.10;99.90;;;;;;4994611;28;20468;-73
2022/08/07 02:49:21;;;;;;;5.07;3.03;;;12.10;99.90;;;;;;4994651;28;20062;-74
2022/08/07 02:51:48;;;;;;;6.50;2.67;;;12.10;99.90;;;;;;4994706;28;20038;-74
2022/08/07 02:54:15;;;;;;;5.45;3.05;;;12.10;99.90;;;;;;4995358;28;20041;-73
2022/08/07 02:56:43;;;;;;;5.32;2.97;;;12.20;99.90;;;;;;4993132;28;20537;-71
2022/08/07 02:59:12;;;;;;;5.47;2.70;;;12.20;99.90;;;;;;4993893;28;20391;-73
2022/08/07 03:01:38;;;;;;;8.10;2.63;;;12.20;99.90;;;;;;4994801;28;20023;-74
2022/08/07 03:04:06;;;;;;;7.97;2.13;;;12.10;99.90;;;;;;4994528;28;20086;-73
2022/08/07 03:06:33;;;;;;;3.67;2.05;;;12.10;99.90;;;;;;4994414;28;20054;-73
2022/08/07 03:08:59;;;;;;;3.53;1.92;;;12.10;99.90;;;;;;4995023;28;20014;-73
2022/08/07 03:11:26;;;;;;;2.92;2.08;;;12.10;99.90;;;;;;4993326;28;20031;-73
2022/08/07 03:13:52;;;;;;;5.47;2.40;;;12.00;99.90;;;;;;4994814;28;20022;-73
2022/08/07 03:16:18;;;;;;;4.10;2.35;;;11.90;99.90;;;;;;4994857;28;20030;-75
2022/08/07 03:18:44;;;;;;;6.60;2.45;;;11.90;99.90;;;;;;4991748;28;20019;-71
2022/08/07 03:21:10;;;;;;;4.20;2.65;;;11.90;99.90;;;;;;4994682;28;20036;-72
2022/08/07 03:23:37;;;;;;;3.83;2.38;;;11.90;99.90;;;;;;4995017;28;20030;-73
2022/08/07 03:26:05;;;;;;;5.53;2.75;;;11.80;99.90;;;;;;4994025;28;20046;-72
2022/08/07 03:28:34;;;;;;;8.88;3.25;;;11.90;99.90;;;;;;4994182;28;20035;-72
2022/08/07 03:31:20;;;;;;;7.90;3.22;;;11.90;99.90;;;;;;4993709;28;20382;-73
2022/08/07 03:33:50;;;;;;;4.47;2.47;;;11.90;99.90;;;;;;4993610;28;20042;-72
2022/08/07 03:36:17;;;;;;;4.70;2.90;;;11.90;99.90;;;;;;4994399;28;20019;-72
2022/08/07 03:38:45;;;;;;;7.93;3.20;;;11.90;99.90;;;;;;4993904;28;20018;-73
2022/08/07 03:41:11;;;;;;;8.35;3.45;;;11.90;99.90;;;;;;4993419;28;20027;-74
2022/08/07 03:43:37;;;;;;;4.65;3.15;;;11.90;99.90;;;;;;4994093;28;20035;-72
2022/08/07 03:46:05;;;;;;;5.78;3.20;;;11.90;99.90;;;;;;4994105;28;20030;-71
2022/08/07 03:48:36;;;;;;;4.50;2.60;;;11.90;99.90;;;;;;4990947;28;20015;-72
2022/08/07 03:51:02;;;;;;;5.50;2.75;;;11.90;99.90;;;;;;4994610;28;20038;-73
2022/08/07 03:53:28;;;;;;;6.57;3.28;;;11.90;99.90;;;;;;4993429;28;20074;-73
2022/08/07 03:55:59;;;;;;;6.70;3.30;;;11.80;99.90;;;;;;4993565;28;20463;-74
2022/08/07 03:58:27;;;;;;;4.93;3.05;;;11.80;99.90;;;;;;4993967;28;20046;-73
2022/08/07 04:00:55;;;;;;;5.13;2.88;;;11.70;99.90;;;;;;4993483;28;20018;-72
2022/08/07 04:03:21;;;;;;;6.93;3.65;;;11.70;99.90;;;;;;4993533;28;20026;-73
2022/08/07 04:05:46;;;;;;;6.15;3.22;;;11.70;99.90;;;;;;4993432;28;20403;-74
2022/08/07 04:08:14;;;;;;;6.88;2.97;;;11.70;99.90;;;;;;4990588;28;20046;-74
2022/08/07 04:10:41;;;;;;;4.63;2.40;;;11.70;99.90;;;;;;4993886;28;20463;-74
2022/08/07 04:13:10;;;;;;;5.68;3.05;;;11.70;99.90;;;;;;4992408;28;20114;-73
2022/08/07 04:15:35;;;;;;;7.72;3.45;;;11.70;99.90;;;;;;4992902;28;20023;-74
2022/08/07 04:18:01;;;;;;;8.95;3.78;;;11.70;99.90;;;;;;4992556;28;20497;-73
2022/08/07 04:20:27;;;;;;;3.95;2.47;;;11.70;99.90;;;;;;4993173;28;20037;-74
2022/08/07 04:22:54;;;;;;;6.15;3.15;;;11.70;99.90;;;;;;4992391;28;20030;-73
2022/08/07 04:25:24;;;;;;;5.28;2.80;;;11.70;99.90;;;;;;4993441;28;20145;-73
2022/08/07 04:27:50;;;;;;;8.55;3.58;;;11.70;99.90;;;;;;4993014;28;20027;-73
2022/08/07 04:30:16;;;;;;;5.18;2.67;;;11.70;99.90;;;;;;4993412;28;20034;-73
2022/08/07 04:32:44;;;;;;;6.32;3.00;;;11.70;99.90;;;;;;4992995;28;20045;-72
2022/08/07 04:35:11;;;;;;;6.32;3.28;;;11.70;99.90;;;;;;4992549;28;20023;-73
2022/08/07 04:37:37;;;;;;;6.82;3.00;;;11.80;99.90;;;;;;4991504;28;20031;-73
2022/08/07 04:40:04;;;;;;;7.60;3.42;;;11.80;99.90;;;;;;4992876;28;20031;-72
2022/08/07 04:42:33;;;;;;;5.60;2.97;;;11.90;99.90;;;;;;4992255;28;20121;-73
2022/08/07 04:45:01;;;;;;;6.57;3.10;;;11.90;99.90;;;;;;4992894;28;20496;-71
2022/08/07 04:47:38;;;;;;;6.15;3.28;;;11.90;99.90;;;;;;4993365;28;20022;-73
2022/08/07 04:50:09;;;;;;;8.80;3.08;;;12.00;99.90;;;;;;4993081;28;20116;-72
2022/08/07 04:53:06;;;;;;;4.93;2.60;;;12.00;99.90;;;;;;4992518;28;20033;-73
2022/08/07 04:55:51;;;;;;;5.63;2.08;;;12.00;99.90;;;;;;4992982;28;20041;-72
2022/08/07 04:58:26;;;;;;;3.95;2.63;;;12.10;99.90;;;;;;4989766;28;20046;-73
2022/08/07 05:01:34;;;;;;;3.40;2.10;;;12.10;99.90;;;;;;4992227;28;20023;-72
2022/08/07 05:04:11;;;;;;;5.90;2.88;;;12.10;99.90;;;;;;4976239;28;20045;-73
2022/08/07 05:06:53;;;;;;;6.25;2.92;;;12.10;99.90;;;;;;4992792;28;20027;-74
2022/08/07 05:09:40;;;;;;;7.18;3.00;;;12.10;99.90;;;;;;4992174;28;20057;-73
2022/08/07 05:12:12;;;;;;;4.78;2.53;;;12.30;99.90;;;;;;4991882;28;20043;-73
2022/08/07 05:14:41;;;;;;;4.32;2.53;;;12.20;99.90;;;;;;4993381;28;20389;-74
2022/08/07 05:17:10;;;;;;;8.10;3.58;;;12.20;99.90;;;;;;4991929;28;20043;-73
2022/08/07 05:19:48;;;;;;;9.32;4.05;;;12.30;99.90;;;;;;4991027;28;20031;-73
2022/08/07 05:22:16;;;;;;;14.98;3.55;;;12.30;99.90;;;;;;4990113;28;20030;-73
2022/08/07 05:24:44;;;;;;;6.75;3.78;;;12.40;99.90;;;;;;4991132;28;20033;-73
2022/08/07 05:27:14;;;;;;;8.55;3.38;;;12.50;99.90;;;;;;4992460;28;20038;-73
2022/08/07 05:29:42;;;;;;;11.07;3.72;;;12.60;99.90;;;;;;4990067;28;20022;-73
2022/08/07 05:32:09;;;;;;;10.30;3.97;;;12.60;99.90;;;;;;4990642;28;20042;-71
2022/08/07 05:34:38;;;;;;;7.97;3.67;;;12.70;99.90;;;;;;4992320;28;20023;-72
2022/08/07 05:37:04;;;;;;;8.15;3.97;;;12.80;99.90;;;;;;4991495;28;20023;-72
2022/08/07 05:39:31;;;;;;;10.55;4.55;;;12.90;99.90;;;;;;4991159;28;20027;-72
2022/08/07 05:41:56;;;;;;;9.20;4.45;;;13.00;99.90;;;;;;4989755;28;20039;-71
2022/08/07 05:44:22;;;;;;;8.98;4.63;;;13.10;99.90;;;;;;4991510;28;20038;-71
2022/08/07 05:46:52;;;;;;;7.50;3.55;;;13.20;99.90;;;;;;4991859;28;20054;-71
2022/08/07 05:49:18;;;;;;;10.05;3.88;;;13.30;99.90;;;;;;4991537;28;20057;-71
2022/08/07 05:51:45;;;;;;;4.32;2.58;;;13.30;99.90;;;;;;4988987;28;20065;-72
2022/08/07 05:54:12;;;;;;;5.25;2.50;;;13.40;99.90;;;;;;4991078;28;20030;-72
2022/08/07 05:56:41;;;;;;;9.55;2.63;;;13.50;99.90;;;;;;4991322;28;20015;-72
2022/08/07 05:59:17;;;;;;;6.30;2.55;;;13.50;99.90;;;;;;4991638;28;20078;-73
2022/08/07 06:01:45;;;;;;;5.82;2.75;;;13.60;99.90;;;;;;4991784;28;20038;-73
2022/08/07 06:04:14;;;;;;;6.55;2.60;;;13.60;99.90;;;;;;4991120;28;20026;-71
2022/08/07 06:06:40;;;;;;;4.13;2.35;;;13.70;99.90;;;;;;4992086;28;20038;-71
2022/08/07 06:09:06;;;;;;;5.60;2.92;;;13.70;99.90;;;;;;4989576;28;20066;-71
2022/08/07 06:11:36;;;;;;;9.90;3.58;;;13.80;99.90;;;;;;4990710;28;20031;-70
2022/08/07 06:14:02;;;;;;;9.13;4.00;;;13.90;99.90;;;;;;4991275;28;20034;-73
2022/08/07 06:16:32;;;;;;;12.85;3.45;;;13.80;99.90;;;;;;4991098;28;20087;-73
2022/08/07 06:19:01;;;;;;;5.18;2.25;;;14.00;99.90;;;;;;4990779;28;20033;-71
2022/08/07 06:21:28;;;;;;;8.98;3.33;;;14.10;99.90;;;;;;4989666;28;20030;-70
2022/08/07 06:23:53;;;;;;;9.00;3.15;;;14.10;99.90;;;;;;4990493;28;20031;-73
2022/08/07 06:26:19;;;;;;;8.63;3.03;;;14.10;99.90;;;;;;4989622;28;20081;-72
2022/08/07 06:28:56;;;;;;;8.02;3.78;;;14.20;99.90;;;;;;4990225;28;20027;-72
2022/08/07 06:31:22;;;;;;;4.85;2.95;;;14.20;99.90;;;;;;4990289;28;20065;-73
2022/08/07 06:33:48;;;;;;;9.77;3.97;;;14.30;99.90;;;;;;4988379;28;20038;-72
2022/08/07 06:36:14;;;;;;;11.32;4.22;;;14.30;99.90;;;;;;4990888;28;20027;-72
2022/08/07 06:38:42;;;;;;;6.05;3.22;;;14.40;99.90;;;;;;4989093;28;20054;-74
2022/08/07 06:41:17;;;;;;;10.38;4.95;;;14.50;99.90;;;;;;4989187;28;20027;-74
2022/08/07 06:43:45;;;;;;;6.93;4.20;;;14.60;99.90;;;;;;4989664;28;20050;-74
2022/08/07 06:46:11;;;;;;;6.65;3.33;;;14.70;99.90;;;;;;4985132;28;20027;-73
2022/08/07 06:48:36;;;;;;;16.67;5.25;;;14.80;99.90;;;;;;4988411;28;20034;-74
2022/08/07 06:51:07;;;;;;;7.00;4.05;;;14.90;99.90;;;;;;4985547;28;20063;-74
2022/08/07 06:53:35;;;;;;;7.47;4.40;;;15.00;99.90;;;;;;4983682;28;20047;-74
2022/08/07 06:56:04;;;;;;;6.80;3.08;;;15.00;99.90;;;;;;4984193;28;20098;-74
2022/08/07 06:58:33;;;;;;;7.97;3.50;;;15.10;99.90;;;;;;4987421;28;20121;-73
2022/08/07 07:00:59;;;;;;;4.25;2.70;;;15.30;99.90;;;;;;4988283;28;20047;-73
2022/08/07 07:03:25;;;;;;;8.73;3.47;;;15.30;99.90;;;;;;4989276;28;20137;-73
2022/08/07 07:05:51;;;;;;;6.55;4.05;;;15.40;99.90;;;;;;4990030;28;20078;-73
2022/08/07 07:08:16;;;;;;;9.38;4.22;;;15.50;99.90;;;;;;4990425;28;20018;-75
2022/08/07 07:10:42;;;;;;;11.45;3.65;;;15.60;99.90;;;;;;4990132;28;20053;-73
2022/08/07 07:13:19;;;;;;;5.68;3.22;;;15.60;99.90;;;;;;4991712;28;20046;-75
2022/08/07 07:15:48;;;;;;;7.32;2.97;;;15.70;99.90;;;;;;4990735;28;20031;-73
2022/08/07 07:18:22;;;;;;;9.57;3.20;;;15.70;99.90;;;;;;4989708;28;20061;-73
2022/08/07 07:21:05;;;;;;;8.75;3.97;;;15.70;99.90;;;;;;4989320;28;20039;-75
2022/08/07 07:23:32;;;;;;;5.93;3.13;;;15.80;99.90;;;;;;4993780;28;20035;-74
2022/08/07 07:26:01;;;;;;;11.77;3.15;;;15.90;99.90;;;;;;4994507;28;20073;-74
2022/08/07 07:28:35;;;;;;;8.45;3.58;;;15.90;99.90;;;;;;4990973;28;20068;-73
2022/08/07 07:31:09;;;;;;;10.63;3.30;;;16.00;99.90;;;;;;4992564;28;20026;-72
2022/08/07 07:33:38;;;;;;;9.63;4.00;;;16.00;99.90;;;;;;4994560;28;20045;-74
2022/08/07 07:36:06;;;;;;;12.45;3.88;;;16.10;99.90;;;;;;4993228;28;20391;-73
2022/08/07 07:38:33;;;;;;;12.32;4.35;;;16.20;99.90;;;;;;4989813;28;20117;-73
2022/08/07 07:41:02;;;;;;;7.63;3.63;;;16.30;99.90;;;;;;4991612;28;20038;-75
2022/08/07 07:43:30;;;;;;;8.05;3.83;;;16.40;99.90;;;;;;4989541;28;20465;-72
2022/08/07 07:45:56;;;;;;;8.15;3.63;;;16.50;99.90;;;;;;4993665;28;20030;-74
2022/08/07 07:48:23;;;;;;;10.93;5.05;;;16.60;99.90;;;;;;4992711;28;20041;-72
2022/08/07 07:50:51;;;;;;;13.48;4.70;;;16.70;99.90;;;;;;4993518;28;20033;-73
2022/08/07 07:53:19;;;;;;;9.40;4.47;;;16.80;99.90;;;;;;4992639;28;20034;-73
2022/08/07 07:55:45;;;;;;;15.60;5.18;;;16.90;99.90;;;;;;4993385;28;20042;-74
2022/08/07 07:58:11;;;;;;;9.18;4.35;;;17.00;99.90;;;;;;4994084;28;20019;-73
2022/08/07 08:00:38;;;;;;;8.98;4.63;;;17.10;99.90;;;;;;4994149;28;20018;-73
2022/08/07 08:03:08;;;;;;;6.85;4.00;;;17.20;99.90;;;;;;4988196;28;20031;-74
2022/08/07 08:05:37;;;;;;;9.70;4.47;;;17.20;99.90;;;;;;4982466;28;20094;-72
2022/08/07 08:08:04;;;;;;;8.45;3.85;;;17.30;99.90;;;;;;4989287;28;20124;-74
2022/08/07 08:10:30;;;;;;;11.07;4.50;;;17.40;99.90;;;;;;4987839;28;20849;-74
2022/08/07 08:12:57;;;;;;;9.40;4.15;;;17.40;99.90;;;;;;4986720;28;20042;-73
2022/08/07 08:15:24;;;;;;;8.23;4.18;;;17.50;99.90;;;;;;4989617;28;20034;-73
2022/08/07 08:17:50;;;;;;;8.27;3.80;;;17.60;99.90;;;;;;4990420;28;20042;-73
2022/08/07 08:20:17;;;;;;;7.25;3.45;;;17.60;99.90;;;;;;4992040;28;20090;-73
2022/08/07 08:28:28;;;;;;;10.45;2.33;;;17.80;99.90;;;;;;4993625;28;20037;-74
2022/08/07 08:30:58;;;;;;;6.53;2.80;;;17.90;99.90;;;;;;4987914;28;20022;-74
2022/08/07 08:33:29;;;;;;;5.70;2.80;;;18.00;99.90;;;;;;4990636;28;20109;-73
2022/08/07 08:35:57;;;;;;;4.07;1.90;;;18.00;99.90;;;;;;4991998;28;20022;-73
2022/08/07 08:38:26;;;;;;;3.10;2.05;;;18.10;99.90;;;;;;4985295;28;20030;-73
2022/08/07 08:41:36;;;;;;;4.13;2.53;;;18.10;99.90;;;;;;4988563;28;20058;-74
2022/08/07 08:44:09;;;;;;;9.43;2.28;;;18.20;99.90;;;;;;4989072;28;20046;-74
2022/08/07 08:46:53;;;;;;;8.85;2.63;;;18.40;99.90;;;;;;4990347;28;20035;-73
2022/08/07 08:49:58;;;;;;;3.60;2.00;;;18.50;99.90;;;;;;4989420;28;20027;-75
2022/08/07 08:52:26;;;;;;;;;;;18.60;99.90;;;;;;4989202;28;20105;-74
2022/08/07 08:55:08;;;;;;;5.10;2.30;;;18.80;99.90;;;;;;4991278;28;19917;-73
2022/08/07 08:57:56;;;;;;;4.70;2.63;;;18.90;99.90;;;;;;4989702;28;20034;-74
2022/08/07 09:00:25;;;;;;;3.47;2.10;;;19.00;99.90;;;;;;4991039;28;20060;-73
2022/08/07 09:03:00;;;;;;;8.30;2.72;;;19.00;99.90;;;;;;4989656;28;20095;-74
2022/08/07 09:05:44;;;;;;;2.80;2.03;;;19.20;99.90;;;;;;4988656;28;20383;-72
2022/08/07 09:08:17;;;;;;;7.17;1.67;;;19.30;99.90;;;;;;4988388;28;20042;-74
2022/08/07 09:11:10;;;;;;;3.45;2.10;;;19.40;99.90;;;;;;4988767;28;20438;-75
2022/08/07 09:13:42;;;;;;;3.58;1.90;;;19.50;99.90;;;;;;4991545;28;20042;-74
2022/08/07 09:16:26;;;;;;;3.10;1.90;;;19.50;99.90;;;;;;4989792;28;20038;-74
2022/08/07 09:19:10;;;;;;;4.95;2.38;;;19.60;99.90;;;;;;4991006;28;20022;-74
2022/08/07 09:21:51;;;;;;;4.68;2.40;;;19.70;99.90;;;;;;4991226;28;20049;-72
2022/08/07 09:24:30;;;;;;;4.85;1.90;;;19.80;99.90;;;;;;4991712;28;20106;-74
2022/08/07 09:27:26;;;;;;;4.93;2.00;;;19.80;99.90;;;;;;4990130;28;20022;-76
2022/08/07 09:30:05;;;;;;;4.28;2.03;;;19.90;99.90;;;;;;4988647;28;20034;-73
2022/08/07 09:32:56;;;;;;;1.67;1.20;;;20.00;99.90;;;;;;4990458;28;20058;-73
2022/08/07 09:35:25;;;;;;;2.00;1.50;;;20.00;99.90;;;;;;4963245;28;20037;-72
2022/08/07 09:38:06;;;;;;;5.03;2.10;;;20.10;99.90;;;;;;4992306;28;20427;-74
2022/08/07 09:41:03;;;;;;;2.53;1.52;;;20.10;99.90;;;;;;4990576;28;20049;-74
2022/08/07 09:44:02;;;;;;;5.75;1.98;;;20.20;99.90;;;;;;4988396;28;20807;-74
2022/08/07 09:46:43;;;;;;;4.28;1.40;;;20.30;99.90;;;;;;4990211;28;20478;-71
2022/08/07 09:49:41;;;;;;;4.20;1.77;;;20.40;99.90;;;;;;4990709;28;20025;-73
2022/08/07 09:52:15;;;;;;;10.18;1.58;;;20.50;99.90;;;;;;4981988;28;20089;-74
2022/08/07 09:54:47;;;;;;;7.28;2.03;;;20.60;99.90;;;;;;4987789;28;20073;-74
2022/08/07 09:57:53;;;;;;;4.80;2.10;;;20.70;99.90;;;;;;4989694;28;20062;-73
2022/08/07 10:00:31;;;;;;;4.45;2.38;;;20.80;99.90;;;;;;4989280;28;20383;-74
2022/08/07 10:03:34;;;;;;;2.08;1.50;;;20.90;99.90;;;;;;4991752;28;20618;-74
2022/08/07 10:06:08;;;;;;;4.70;2.17;;;20.80;99.90;;;;;;4989721;28;20030;-72
2022/08/07 10:09:07;;;;;;;2.72;1.42;;;20.80;99.90;;;;;;4991607;28;20030;-75
2022/08/07 10:12:07;;;;;;;1.38;1.17;;;20.80;99.90;;;;;;4991193;28;20406;-74
2022/08/07 10:14:47;;;;;;;3.30;2.10;;;20.80;99.90;;;;;;4991509;28;20058;-71
2022/08/07 10:17:46;;;;;;;3.80;2.15;;;20.80;99.90;;;;;;4991504;28;20042;-75
2022/08/07 10:20:37;;;;;;;1.73;1.38;;;20.80;99.90;;;;;;4991834;28;20038;-74
2022/08/07 10:23:40;;;;;;;4.22;1.50;;;20.80;99.90;;;;;;4989173;28;20033;-73
2022/08/07 10:26:29;;;;;;;7.95;1.73;;;20.90;99.90;;;;;;4987535;28;20062;-74
2022/08/07 10:29:22;;;;;;;3.78;1.58;;;20.90;99.90;;;;;;4982314;28;20031;-74
2022/08/07 10:32:07;;;;;;;2.33;1.50;;;21.10;99.90;;;;;;4983917;28;20047;-73
2022/08/07 10:34:38;;;;;;;;;;;21.40;99.90;;;;;;4991706;28;20030;-75
2022/08/07 10:37:19;;;;;;;2.70;1.50;;;21.50;99.90;;;;;;4998638;28;19913;-75
2022/08/07 10:40:07;;;;;;;9.02;1.73;;;21.80;99.90;;;;;;4989055;28;20475;-74
2022/08/07 10:42:59;;;;;;;3.40;1.65;;;22.00;99.90;;;;;;4988720;28;20042;-74
2022/08/07 10:45:29;;;;;;;2.60;1.58;;;22.20;99.90;;;;;;4988666;28;20030;-72
2022/08/07 10:48:32;;;;;;;4.10;1.90;;;22.20;99.90;;;;;;4990200;28;20054;-74
2022/08/07 10:51:21;;;;;;;1.83;1.10;;;22.00;99.90;;;;;;4991602;28;20109;-72
2022/08/07 10:54:07;;;;;;;1.88;1.25;;;21.90;99.90;;;;;;4991034;28;20039;-73
2022/08/07 10:57:09;;;;;;;7.03;1.33;;;21.90;99.90;;;;;;4990022;28;20037;-73
2022/08/07 10:59:34;;;;;;;1.27;1.00;;;21.70;99.90;;;;;;4994231;28;20041;-75
2022/08/07 11:02:22;;;;;;;3.63;1.42;;;21.70;99.90;;;;;;4990246;28;20472;-74
2022/08/07 11:05:15;;;;;;;3.50;1.48;;;22.10;99.90;;;;;;4985229;28;20026;-74
2022/08/07 11:08:18;;;;;;;1.88;1.10;;;22.30;99.90;;;;;;4982829;28;20035;-73
2022/08/07 11:11:00;;;;;;;4.05;1.73;;;22.60;99.90;;;;;;4990147;28;20434;-77
2022/08/07 11:13:47;;;;;;;2.22;1.45;;;22.90;99.90;;;;;;4985266;28;20042;-76
2022/08/07 11:16:45;;;;;;;2.42;1.35;;;23.00;99.90;;;;;;4973931;28;20042;-74
2022/08/07 11:19:51;;;;;;;2.75;1.73;;;23.30;99.90;;;;;;4972091;28;20054;-75
2022/08/07 11:22:29;;;;;;;1.17;1.00;;;23.40;99.90;;;;;;4989974;28;21335;-73
2022/08/07 11:25:23;;;;;;;1.77;1.38;;;23.40;99.90;;;;;;4986667;28;20023;-75
2022/08/07 11:28:10;;;;;;;6.32;1.27;;;23.40;99.90;;;;;;4990598;28;20053;-73
2022/08/07 11:31:13;;;;;;;2.47;1.20;;;23.50;99.90;;;;;;4989624;28;20038;-75
2022/08/07 11:33:42;;;;;;;1.27;1.10;;;23.40;99.90;;;;;;4993846;28;20042;-74
2022/08/07 11:36:12;;;;;;;1.98;1.35;;;23.40;99.90;;;;;;4991788;28;20049;-74
2022/08/07 11:39:02;;;;;;;3.38;1.20;;;23.40;99.90;;;;;;4994196;28;20691;-73
2022/08/07 11:41:36;;;;;;;2.42;1.10;;;23.40;99.90;;;;;;4990577;28;20034;-74
2022/08/07 11:44:15;;;;;;;2.97;1.50;;;23.40;99.90;;;;;;4991195;28;20046;-75
2022/08/07 11:47:00;;;;;;;1.45;1.00;;;23.50;99.90;;;;;;4985657;28;20038;-76
2022/08/07 11:49:41;;;;;;;;;;;23.70;99.90;;;;;;4993293;28;20593;-74
2022/08/07 11:52:15;;;;;;;1.92;1.33;;;23.90;99.90;;;;;;4991294;28;19926;-75
2022/08/07 11:55:03;;;;;;;1.25;1.02;;;24.10;99.90;;;;;;4993207;28;20030;-74
2022/08/07 11:57:54;;;;;;;2.15;1.48;;;23.80;99.90;;;;;;4993037;28;20121;-75
2022/08/07 12:00:37;;;;;;;2.55;1.35;;;23.50;99.90;;;;;;4992073;28;20064;-75
2022/08/07 12:03:07;;;;;;;2.15;1.17;;;23.70;99.90;;;;;;4992245;28;20035;-74
2022/08/07 12:06:18;;;;;;;2.47;1.60;;;23.90;99.90;;;;;;4982732;28;20026;-74
2022/08/07 12:08:56;;;;;;;1.77;1.27;;;24.10;99.90;;;;;;4987599;28;20051;-74
2022/08/07 12:11:33;;;;;;;3.20;1.27;;;24.10;99.90;;;;;;4987954;28;20065;-74
2022/08/07 12:14:14;;;;;;;5.38;1.65;;;23.90;99.90;;;;;;4989741;28;20041;-75
2022/08/07 12:17:06;;;;;;;3.03;1.23;;;23.70;99.90;;;;;;4991722;28;20038;-74
2022/08/07 12:20:08;;;;;;;4.13;2.05;;;23.80;99.90;;;;;;4985882;28;20020;-74
2022/08/07 12:22:48;;;;;;;3.67;1.58;;;24.10;99.90;;;;;;4989996;28;20026;-76
2022/08/07 12:28:15;;;;;;;3.53;1.50;;;24.60;99.90;;;;;;4992881;28;20062;-76
2022/08/07 12:30:44;;;;;;;2.08;1.25;;;24.90;99.90;;;;;;4986782;28;20496;-76
2022/08/07 12:33:17;;;;;;;1.98;1.25;;;25.10;99.90;;;;;;4989747;28;20106;-73
2022/08/07 12:35:46;;;;;;;1.80;1.25;;;25.30;99.90;;;;;;4992508;28;20406;-74
2022/08/07 12:38:13;;;;;;;2.95;1.35;;;25.60;99.90;;;;;;4992825;28;20381;-76
2022/08/07 12:40:44;;;;;;;2.45;1.50;;;25.80;99.90;;;;;;4992890;28;20062;-74
2022/08/07 12:43:13;;;;;;;5.80;1.20;;;25.90;99.90;;;;;;4990987;28;20051;-77
2022/08/07 12:45:46;;;;;;;3.08;1.60;;;25.90;99.90;;;;;;4991620;28;20026;-74
2022/08/07 12:48:50;;;;;;;2.67;1.35;;;25.60;99.90;;;;;;4990696;28;20026;-74
2022/08/07 12:51:19;;;;;;;3.67;1.80;;;25.20;99.90;;;;;;4931457;29;20566;-77
2022/08/07 12:54:03;;;;;;;2.38;1.30;;;25.10;99.90;;;;;;4976690;28;20042;-75
2022/08/07 12:56:38;;;;;;;;;;;25.20;99.90;;;;;;4990063;28;20030;-75
2022/08/07 12:59:05;;;;;;;2.10;1.20;;;25.20;99.90;;;;;;4992260;28;19906;-75
2022/08/07 13:01:41;;;;;;;2.95;1.38;;;25.30;99.90;;;;;;4990661;28;20121;-72
2022/08/07 13:04:32;;;;;;;1.75;1.08;;;25.50;99.90;;;;;;4992162;28;20027;-75
2022/08/07 13:07:12;;;;;;;2.58;1.45;;;25.90;99.90;;;;;;4990211;28;20026;-76
2022/08/07 13:10:22;;;;;;;2.95;1.38;;;26.30;99.90;;;;;;4990837;28;20077;-76
2022/08/07 13:13:07;;;;;;;2.15;1.60;;;26.60;99.90;;;;;;4990844;28;20038;-76
2022/08/07 13:16:00;;;;;;;4.47;1.70;;;26.70;99.90;;;;;;4991080;28;20014;-75
2022/08/07 13:18:32;;;;;;;2.35;1.50;;;26.60;99.90;;;;;;4993100;28;20026;-74
2022/08/07 13:21:20;;;;;;;3.15;1.35;;;26.20;99.90;;;;;;4991640;28;20110;-77
2022/08/07 13:24:05;;;;;;;5.68;1.67;;;25.70;99.90;;;;;;4991263;28;20027;-79
2022/08/07 13:26:41;;;;;;;2.92;1.35;;;25.20;99.90;;;;;;4992087;28;20022;-77
2022/08/07 13:29:28;;;;;;;4.75;1.40;;;25.20;99.90;;;;;;4992241;28;20022;-79
2022/08/07 13:32:01;;;;;;;4.82;1.48;;;25.10;99.90;;;;;;4992421;28;20038;-78